Nearby METAR Reports

 

KIND - Indianapolis, Indiana, USA
Distance from station: SW 6mi, 9km
Updated: Sep 19 2019 4:54am
Few Clouds
Few Clouds
 Wind from E
Wind: E 6 mph , 9 km/h
Temperature: 64°F , 18°C
Dew Point: 52°F , 11°C
Humidity: 64%
Barometer: 30.08 inHg , 1018.6 hPa
Clouds: Few Clouds
Visibility: 10 miles , 16 km
Cloud details: Few Clouds 25000 ft
2019/09/19 08:54 KIND 190854Z 09005KT 10SM FEW250 18/11 A3008 RMK AO2 SLP178 T01830106 58003
KEYE - Indianapolis, Indiana, USA
Distance from station: NW 5mi, 8km
Updated: Sep 19 2019 4:53am
Clear
Clear
 Wind from calm
Wind: Calm
Temperature: 61°F , 16°C
Dew Point: 54°F , 12°C
Humidity: 77%
Barometer: 30.08 inHg , 1018.6 hPa
Clouds: Clear
Visibility: 10 miles , 16 km
2019/09/19 08:53 KEYE 190853Z AUTO 00000KT 10SM CLR 16/12 A3008 RMK AO2 SLP180 T01610117 58002
 
KTYQ - Indianapolis Exc, Indiana, USA
Distance from station: N 17mi, 28km
Updated: Sep 19 2019 5:15am
Clear
Clear
 Wind from calm
Wind: Calm
Temperature: 54°F , 12°C
Dew Point: 54°F , 12°C
Humidity: 100%
Barometer: 30.11 inHg , 1019.6 hPa
Clouds: Clear
Visibility: 10 miles , 16 km
2019/09/19 09:15 KTYQ 190915Z AUTO 00000KT 10SM CLR 12/12 A3011 RMK AO2 T01160116
KGEZ - Shelbyville, Indiana, USA
Distance from station: ESE 27mi, 43km
Updated: Sep 19 2019 4:53am
Clear
Clear
 Wind from ENE
Wind: ENE 5 mph , 7 km/h
Temperature: 59°F , 15°C
Dew Point: 54°F , 12°C
Humidity: 82%
Barometer: 30.08 inHg , 1018.6 hPa
Clouds: Clear
Visibility: 10 miles , 16 km
2019/09/19 08:53 KGEZ 190853Z AUTO 06004KT 10SM CLR 15/12 A3008 RMK AO2 SLP181 T01500117 58001
 
KAID - Anderson Municip, Indiana, USA
Distance from station: NE 40mi, 64km
Updated: Sep 19 2019 5:35am
Clear
Clear
 Wind from calm
Wind: Calm
Temperature: 59°F , 15°C
Dew Point: 52°F , 11°C
Humidity: 77%
Barometer: 30.11 inHg , 1019.6 hPa
Clouds: Clear
Visibility: 10 miles , 16 km
2019/09/19 09:35 KAID 190935Z AUTO 00000KT 10SM CLR 15/11 A3011 RMK AO2 T01450108
KBAK - Columbus/Balkala, Indiana, USA
Distance from station: SSE 40mi, 64km
Updated: Sep 18 2019 9:53pm
NOT Current
Clear
Clear
 Wind from calm
Wind: Calm
Temperature: 63°F , 17°C
Dew Point: 55°F , 13°C
Humidity: 77%
Barometer: 30.08 inHg , 1018.6 hPa
Clouds: Clear
Visibility: 10 miles , 16 km
2019/09/19 01:53 KBAK 190153Z 00000KT 10SM SKC 17/13 A3008 RMK LAST
 
KBMG - Bloomington, Indiana, USA
Distance from station: SSW 48mi, 78km
Updated: Sep 19 2019 4:53am
Clear
Clear
 Wind from calm
Wind: Calm
Temperature: 61°F , 16°C
Dew Point: 55°F , 13°C
Humidity: 83%
Barometer: 30.07 inHg , 1018.3 hPa
Clouds: Clear
Visibility: 10 miles , 16 km
2019/09/19 08:53 KBMG 190853Z AUTO 00000KT 10SM CLR 16/13 A3007 RMK AO2 SLP176 T01560133 58001
KOKK - Kokomo, Indiana, USA
Distance from station: N 53mi, 85km
Updated: Sep 19 2019 4:56am
Clear
Clear
 Wind from ENE
Wind: ENE 5 mph , 7 km/h
Temperature: 55°F , 13°C
Dew Point: 54°F , 12°C
Humidity: 94%
Barometer: 30.12 inHg , 1020 hPa
Clouds: Clear
Visibility: 10 miles , 16 km
2019/09/19 08:56 KOKK 190856Z AUTO 06004KT 10SM CLR 13/12 A3012 RMK AO2 SLP194 T01280117 58000